• Join FlightAware (Why Join?)
  • Login
  • US Flag 
12:51PM EST


 

Airport Tracker/Info


-or-


 

Live Flight TrackerFlight Track Log ✈ AWE1262 ✈ 29-Apr-2013 ✈ KPHL - KMHT

Flight Track Log - Related Links

Times and Time Zones

All times are in EDT time to prevent confusion due to time zone crossing. See the AWE1262 flight status page for this flight to view local times or setup timezone preferences in your user account.

Time Position Orientation Groundspeed Altitude Reporting Facility
EDT Latitude Longitude Course Direction KTS MPH feet Rate Location/Type
09:40PM 39.8833 -75.2167 37° Northeast 143 165 1,100  Level Philadelphia TRACON
09:40PM 39.8667 -75.1667 113° Southeast 203 234 2,700 2,389 Climbing Philadelphia TRACON
09:41PM 39.8667 -75.0833 90° East 250 288 5,400 3,211 Climbing Philadelphia TRACON
09:42PM 39.8119 -74.8427 105° East  Level FlightAware Approximate
09:42PM 39.8500 -75.0000 105° East 266 306 8,800  Level Philadelphia TRACON
09:43PM 39.7856 -74.7114 105° East  Level FlightAware Approximate
09:44PM 39.8588 -74.6246 37° Northeast  Level FlightAware Approximate
09:45PM 39.9449 -74.5551 37° Northeast  Level FlightAware Approximate
09:45PM 39.8039 -74.7700 105° East 315 362 12,500  Level New York Center
09:46PM 39.8642 -74.6492 57° Northeast 332 382 15,900 3,074 Climbing New York Center
09:47PM 39.9461 -74.5697 37° Northeast 336 387 18,700 2,529 Climbing New York Center
09:48PM 40.0300 -74.4847 38° Northeast 363 418 21,000 2,281 Climbing New York Center
09:49PM 40.1203 -74.3972 37° Northeast 391 450 23,300 1,714 Climbing New York Center
09:50PM 40.2250 -74.3131 32° Northeast 408 470 24,400 1,400 Climbing New York Center
09:51PM 40.3275 -74.2286 32° Northeast 429 494 26,100 1,373 Climbing New York Center
09:53PM 40.5700 -74.0247 33° Northeast 456 525 29,000 874 Climbing Boston Center
09:54PM 40.6814 -73.9397 30° Northeast 456 525 29,000  Level Boston Center
09:55PM 40.7972 -73.8575 28° Northeast 461 531 29,000  Level Boston Center
09:56PM 40.9247 -73.8244 11° North 455 524 29,000  Level Boston Center
09:58PM 41.0863 -73.7833 North  Level FlightAware Approximate
09:58PM 41.1736 -73.7556 North 455 524 29,000  Level Boston Center
10:00PM 41.4475 -73.6808 12° North 450 518 27,700 -625 Descending Boston Center
10:01PM 41.5644 -73.6525 10° North 438 504 27,000 -350 Descending Boston Center
10:02PM 41.6856 -73.6214 11° North 433 498 27,000 -350 Level Boston Center
10:03PM 41.8047 -73.5903 11° North 433 498 26,300 -1,300 Descending Boston Center
10:04PM 41.9014 -73.5000 35° Northeast 408 470 24,400 -1,800 Descending Boston Center
10:05PM 41.9858 -73.3869 45° Northeast 418 481 22,700 -1,500 Descending Boston Center
10:06PM 42.0511 -73.3011 44° Northeast 418 481 21,400 -850 Descending Boston Center
10:07PM 42.1481 -73.1708 45° Northeast 406 467 21,000 -350 Descending Boston Center
10:08PM 42.2319 -73.0597 44° Northeast 406 467 20,700 -750 Descending Boston Center
10:09PM 42.3117 -72.9539 44° Northeast 406 467 19,500 -850 Descending Boston Center
10:10PM 42.3975 -72.8336 46° Northeast 406 467 19,000 -250 Descending Boston Center
10:11PM 42.4689 -72.7356 45° Northeast 401 461 19,000 -200 Level Boston Center
10:12PM 42.5544 -72.6206 45° Northeast 401 461 18,600 -1,200 Descending Boston Center
10:13PM 42.6214 -72.5303 45° Northeast 390 449 16,600 -2,100 Descending Boston Center
10:14PM 42.6881 -72.4231 50° Northeast 376 433 14,400 -1,950 Descending Boston Center
10:15PM 42.7214 -72.3044 69° East 345 397 12,700 -1,550 Descending Boston Center
10:16PM 42.7503 -72.1828 72° East 311 358 11,300 -1,350 Descending Boston Center
10:17PM 42.7792 -72.0950 66° East 292 336 10,000 -1,700 Descending Boston Center
10:18PM 42.8353 -72.0042 50° Northeast 284 327 7,900 -1,900 Descending Boston Center
10:19PM 42.8806 -71.9331 49° Northeast 277 319 6,200 -1,900 Descending Boston Center
10:20PM 42.9344 -71.8444 50° Northeast 277 319 4,100 -1,350 Descending Boston Center
10:21PM 42.9758 -71.7761 50° Northeast 267 307 3,500 -500 Descending Boston Center
10:22PM 43.0169 -71.7103 49° Northeast 223 257 3,100 -200 Descending Boston Center
10:23PM 43.0417 -71.6531 59° Northeast 193 222 3,100  Level Boston Center
10:24PM 43.0411 -71.5736 91° East 178 205 3,100 -250 Level Boston Center
10:25PM 43.0406 -71.5111 91° East 178 205 2,600 -650 Descending Boston Center
10:26PM 43.0069 -71.4806 146° Southeast 140 161 1,800 -750 Descending Boston Center
10:27PM 42.9778 -71.4611 154° Southeast 132 152 1,100 -750 Descending Boston Center
10:28PM 42.9400 -71.4389 157° South 132 152 300 -400 Descending Boston Center
10:29PM 42.9064 -71.4197 157° South 132 152 300  Level Boston Center